Time;durP1;ratioP1;P1;durP2;ratioP2;P2;SDS_P1;SDS_P2;PMS_P1;PMS_P2;Temp;Humidity;BMP_temperature;BMP_pressure;BME280_temperature;BME280_humidity;BME280_pressure;Samples;Min_cycle;Max_cycle;Signal;HPM_P1;HPM_P2
2023/04/29 00:02:17;;;;;;;23.13;22.13;;;14.20;99.90;;;;;;4953995;29;20564;-74
2023/04/29 00:04:44;;;;;;;22.70;21.70;;;14.30;99.90;;;;;;4953785;29;20507;-75
2023/04/29 00:07:14;;;;;;;22.57;21.47;;;14.20;99.90;;;;;;4953685;29;20781;-74
2023/04/29 00:09:40;;;;;;;22.43;21.17;;;14.20;99.90;;;;;;4953482;28;20461;-76
2023/04/29 00:12:08;;;;;;;22.37;21.10;;;14.20;99.90;;;;;;4952648;29;20497;-75
2023/04/29 00:14:35;;;;;;;21.73;20.83;;;14.20;99.90;;;;;;4953609;29;20482;-75
2023/04/29 00:17:03;;;;;;;22.70;21.50;;;14.20;99.90;;;;;;4953802;29;20457;-76
2023/04/29 00:19:30;;;;;;;23.47;22.17;;;14.10;99.90;;;;;;4953522;29;20487;-75
2023/04/29 00:21:57;;;;;;;21.70;20.80;;;14.20;99.90;;;;;;4953327;29;20457;-76
2023/04/29 00:24:24;;;;;;;22.57;21.47;;;14.20;99.90;;;;;;4953341;29;20449;-75
2023/04/29 00:26:50;;;;;;;22.40;21.40;;;14.10;99.90;;;;;;4953395;29;20496;-75
2023/04/29 00:29:17;;;;;;;22.57;21.37;;;14.00;99.90;;;;;;4953506;29;20477;-76
2023/04/29 00:31:44;;;;;;;22.27;21.07;;;14.00;99.90;;;;;;4953238;29;20488;-75
2023/04/29 00:34:12;;;;;;;21.57;20.50;;;13.90;99.90;;;;;;4953202;29;20460;-75
2023/04/29 00:36:38;;;;;;;21.27;20.17;;;13.90;99.90;;;;;;4953032;29;20459;-75
2023/04/29 00:39:06;;;;;;;20.90;19.90;;;13.90;99.90;;;;;;4953127;29;20830;-75
2023/04/29 00:41:33;;;;;;;19.63;18.63;;;13.90;99.90;;;;;;4953147;29;20553;-75
2023/04/29 00:43:59;;;;;;;19.80;18.80;;;13.80;99.90;;;;;;4953026;29;20456;-77
2023/04/29 00:46:26;;;;;;;20.40;19.40;;;13.80;99.90;;;;;;4952980;29;20460;-75
2023/04/29 00:48:53;;;;;;;20.97;19.77;;;13.80;99.90;;;;;;4952849;29;20467;-76
2023/04/29 00:51:21;;;;;;;20.17;19.17;;;13.80;99.90;;;;;;4952986;29;20491;-76
2023/04/29 00:53:48;;;;;;;19.20;18.23;;;13.80;99.90;;;;;;4953364;29;20464;-75
2023/04/29 00:56:16;;;;;;;20.40;19.20;;;13.90;99.90;;;;;;4953099;29;20962;-76
2023/04/29 00:58:48;;;;;;;19.73;18.87;;;13.90;99.90;;;;;;4952766;29;20457;-76
2023/04/29 01:01:15;;;;;;;19.60;18.70;;;13.80;99.90;;;;;;4952726;29;20564;-76
2023/04/29 01:03:42;;;;;;;20.93;19.93;;;13.80;99.90;;;;;;4952660;29;20485;-78
2023/04/29 01:06:20;;;;;;;20.30;19.40;;;13.90;99.90;;;;;;4952462;29;20452;-77
2023/04/29 01:09:03;;;;;;;21.40;20.20;;;13.80;99.90;;;;;;4952849;28;20456;-76
2023/04/29 01:11:36;;;;;;;22.10;21.10;;;13.70;99.90;;;;;;4952368;29;20839;-77
2023/04/29 01:14:04;;;;;;;20.83;19.83;;;13.70;99.90;;;;;;4952642;29;21022;-76
2023/04/29 01:16:37;;;;;;;20.07;18.97;;;13.60;99.90;;;;;;4952482;29;20461;-76
2023/04/29 01:19:15;;;;;;;21.17;20.07;;;13.60;99.90;;;;;;4952641;29;20955;-76
2023/04/29 01:21:47;;;;;;;19.63;18.73;;;13.60;99.90;;;;;;4952206;28;20441;-75
2023/04/29 01:24:16;;;;;;;19.07;18.17;;;13.50;99.90;;;;;;4952257;29;20453;-76
2023/04/29 01:26:51;;;;;;;18.73;17.83;;;13.50;99.90;;;;;;4952298;28;20468;-75
2023/04/29 01:29:32;;;;;;;19.47;18.37;;;13.60;99.90;;;;;;4952248;29;20492;-77
2023/04/29 01:32:07;;;;;;;19.30;18.50;;;13.60;99.90;;;;;;4952307;29;20492;-76
2023/04/29 01:34:42;;;;;;;18.97;18.07;;;13.60;99.90;;;;;;4952330;29;20475;-76
2023/04/29 01:37:18;;;;;;;17.47;16.77;;;13.60;99.90;;;;;;4952140;29;20448;-76
2023/04/29 01:39:56;;;;;;;18.53;17.73;;;13.60;99.90;;;;;;4952230;29;20452;-76
2023/04/29 01:42:27;;;;;;;19.50;18.60;;;13.60;99.90;;;;;;4952017;29;20455;-76
2023/04/29 01:44:57;;;;;;;20.47;19.47;;;13.50;99.90;;;;;;4951983;29;20460;-77
2023/04/29 01:47:24;;;;;;;21.53;20.33;;;13.50;99.90;;;;;;4951951;29;20555;-77
2023/04/29 01:49:51;;;;;;;20.00;19.00;;;13.50;99.90;;;;;;4952111;29;20463;-77
2023/04/29 01:52:18;;;;;;;20.37;19.27;;;13.40;99.90;;;;;;4952232;29;20496;-77
2023/04/29 01:54:45;;;;;;;22.83;21.53;;;13.40;99.90;;;;;;4951922;29;20456;-76
2023/04/29 01:57:13;;;;;;;21.10;20.10;;;13.40;99.90;;;;;;4951885;29;20459;-75
2023/04/29 01:59:40;;;;;;;21.67;20.47;;;13.30;99.90;;;;;;4951680;29;20457;-76
2023/04/29 02:02:09;;;;;;;21.33;20.00;;;13.20;99.90;;;;;;4951830;28;20453;-77
2023/04/29 02:04:35;;;;;;;21.03;19.73;;;13.20;99.90;;;;;;4951814;29;20523;-75
2023/04/29 02:07:02;;;;;;;20.47;19.47;;;13.20;99.90;;;;;;4952066;29;20483;-75
2023/04/29 02:09:29;;;;;;;22.10;21.00;;;13.10;99.90;;;;;;4951615;29;20495;-75
2023/04/29 02:11:56;;;;;;;20.90;19.90;;;13.10;99.90;;;;;;4951420;29;20500;-76
2023/04/29 02:14:24;;;;;;;20.47;19.40;;;13.10;99.90;;;;;;4951414;29;20456;-76
2023/04/29 02:16:51;;;;;;;22.27;20.77;;;13.00;99.90;;;;;;4951655;29;20502;-76
2023/04/29 02:19:17;;;;;;;23.43;22.33;;;13.00;99.90;;;;;;4951853;29;20456;-76
2023/04/29 02:21:44;;;;;;;22.30;21.20;;;13.00;99.90;;;;;;4951545;29;20451;-76
2023/04/29 02:24:11;;;;;;;22.83;21.73;;;13.00;99.90;;;;;;4951548;29;20942;-76
2023/04/29 02:26:38;;;;;;;22.00;21.00;;;13.00;99.90;;;;;;4951505;29;20463;-75
2023/04/29 02:29:04;;;;;;;21.53;20.33;;;12.90;99.90;;;;;;4951758;29;20456;-75
2023/04/29 02:31:32;;;;;;;21.83;20.73;;;12.90;99.90;;;;;;4951419;29;20583;-77
2023/04/29 02:34:00;;;;;;;21.73;20.53;;;12.90;99.90;;;;;;4952715;28;20452;-77
2023/04/29 02:36:27;;;;;;;23.13;21.87;;;12.70;99.90;;;;;;4955127;28;20978;-77
2023/04/29 02:38:54;;;;;;;24.00;22.50;;;12.60;99.90;;;;;;4955245;29;20470;-76
2023/04/29 02:41:21;;;;;;;23.93;22.50;;;12.60;99.90;;;;;;4955235;29;20449;-75
2023/04/29 02:43:48;;;;;;;22.40;20.90;;;12.50;99.90;;;;;;4955291;29;20479;-74
2023/04/29 02:46:15;;;;;;;23.03;21.57;;;12.50;99.90;;;;;;4955318;28;20488;-75
2023/04/29 02:48:43;;;;;;;23.83;22.37;;;12.40;99.90;;;;;;4955001;29;20457;-76
2023/04/29 02:51:10;;;;;;;23.47;21.97;;;12.30;99.90;;;;;;4955001;29;20946;-76
2023/04/29 02:53:37;;;;;;;24.57;22.30;;;12.30;99.90;;;;;;4955279;29;20452;-76
2023/04/29 02:56:04;;;;;;;23.97;22.37;;;12.30;99.90;;;;;;4955177;29;20529;-75
2023/04/29 02:58:31;;;;;;;24.70;23.27;;;12.30;99.90;;;;;;4955014;29;20802;-75
2023/04/29 03:00:58;;;;;;;25.10;23.53;;;12.20;99.90;;;;;;4954716;29;20456;-76
2023/04/29 03:03:24;;;;;;;25.20;23.47;;;12.20;99.90;;;;;;4954702;29;20468;-76
2023/04/29 03:05:52;;;;;;;25.17;23.60;;;12.10;99.90;;;;;;4954814;29;20456;-75
2023/04/29 03:08:19;;;;;;;26.43;24.50;;;12.10;99.90;;;;;;4954848;29;20472;-76
2023/04/29 03:10:46;;;;;;;28.63;26.83;;;12.10;99.90;;;;;;4954797;29;20488;-76
2023/04/29 03:13:13;;;;;;;26.50;24.90;;;12.10;99.90;;;;;;4954613;29;20488;-76
2023/04/29 03:15:39;;;;;;;25.33;23.63;;;12.10;99.90;;;;;;4954494;29;21159;-77
2023/04/29 03:18:06;;;;;;;25.00;23.50;;;12.00;99.90;;;;;;4954679;29;20459;-78
2023/04/29 03:20:33;;;;;;;24.37;23.07;;;12.00;99.90;;;;;;4954845;29;20463;-77
2023/04/29 03:23:01;;;;;;;25.30;23.70;;;11.90;99.90;;;;;;4954425;29;20547;-77
2023/04/29 03:25:28;;;;;;;24.83;23.37;;;11.90;99.90;;;;;;4954402;29;20540;-76
2023/04/29 03:27:54;;;;;;;25.70;24.00;;;11.90;99.90;;;;;;4954471;28;20858;-77
2023/04/29 03:30:21;;;;;;;27.40;25.60;;;11.90;99.90;;;;;;4954596;29;20939;-77
2023/04/29 03:32:48;;;;;;;25.60;24.10;;;11.90;99.90;;;;;;4954497;29;20492;-77
2023/04/29 03:35:15;;;;;;;25.10;23.60;;;11.90;99.90;;;;;;4954115;29;20465;-77
2023/04/29 03:37:43;;;;;;;26.03;24.33;;;11.90;99.90;;;;;;4954153;29;20718;-76
2023/04/29 03:40:13;;;;;;;27.00;25.20;;;11.90;99.90;;;;;;4954363;28;21021;-77
2023/04/29 03:42:39;;;;;;;29.30;27.30;;;12.00;99.90;;;;;;4954151;29;20990;-76
2023/04/29 03:45:07;;;;;;;27.40;25.50;;;11.90;99.90;;;;;;4953154;28;20461;-77
2023/04/29 03:47:34;;;;;;;26.37;24.77;;;11.80;99.90;;;;;;4954130;28;20464;-76
2023/04/29 03:50:01;;;;;;;27.67;25.63;;;11.80;99.90;;;;;;4954197;29;20464;-76
2023/04/29 03:52:28;;;;;;;27.30;25.70;;;11.80;99.90;;;;;;4953993;29;21003;-77
2023/04/29 03:54:55;;;;;;;27.90;26.30;;;11.70;99.90;;;;;;4954078;29;20642;-76
2023/04/29 03:57:23;;;;;;;29.20;27.20;;;11.80;99.90;;;;;;4954033;29;20879;-77
2023/04/29 03:59:50;;;;;;;27.90;26.20;;;11.70;99.90;;;;;;4954288;29;20452;-77
2023/04/29 04:02:16;;;;;;;28.87;27.00;;;11.70;99.90;;;;;;4954027;29;20455;-77
2023/04/29 04:04:43;;;;;;;29.60;27.70;;;11.70;99.90;;;;;;4953672;29;20969;-77
2023/04/29 04:07:10;;;;;;;30.80;28.73;;;11.60;99.90;;;;;;4953697;28;20515;-77
2023/04/29 04:09:37;;;;;;;31.60;28.90;;;11.60;99.90;;;;;;4953867;29;20469;-77
2023/04/29 04:12:04;;;;;;;30.00;28.20;;;11.60;99.90;;;;;;4953739;29;20499;-77
2023/04/29 04:14:33;;;;;;;31.07;29.20;;;11.50;99.90;;;;;;4953732;28;20460;-78
2023/04/29 04:17:00;;;;;;;33.07;30.97;;;11.60;99.90;;;;;;4953673;29;20469;-77
2023/04/29 04:19:27;;;;;;;31.53;29.43;;;11.60;99.90;;;;;;4953568;29;20457;-77
2023/04/29 04:21:54;;;;;;;33.43;31.43;;;11.50;99.90;;;;;;4953383;29;20814;-77
2023/04/29 04:24:21;;;;;;;31.57;29.57;;;11.40;99.90;;;;;;4953376;29;20537;-77
2023/04/29 04:26:48;;;;;;;32.40;30.43;;;11.50;99.90;;;;;;4953612;29;20829;-77
2023/04/29 04:29:15;;;;;;;32.17;30.20;;;11.50;99.90;;;;;;4953643;29;20826;-77
2023/04/29 04:31:43;;;;;;;34.10;31.87;;;11.50;99.90;;;;;;4953099;29;20463;-77
2023/04/29 04:34:10;;;;;;;34.10;32.13;;;11.50;99.90;;;;;;4952900;29;20457;-77
2023/04/29 04:36:37;;;;;;;34.33;32.23;;;11.50;99.90;;;;;;4952811;29;20506;-79
2023/04/29 04:39:04;;;;;;;36.47;33.97;;;11.50;99.90;;;;;;4953151;29;20923;-79
2023/04/29 04:41:31;;;;;;;36.67;34.47;;;11.60;99.90;;;;;;4952993;29;20556;-78
2023/04/29 04:43:58;;;;;;;36.90;34.70;;;11.70;99.90;;;;;;4953084;28;20472;-78
2023/04/29 04:46:25;;;;;;;37.57;35.37;;;11.70;99.90;;;;;;4954247;28;20468;-79
2023/04/29 04:48:53;;;;;;;38.87;36.50;;;11.70;99.90;;;;;;4963557;28;20460;-78
2023/04/29 04:51:20;;;;;;;39.70;37.30;;;11.60;99.90;;;;;;4961071;28;20453;-78
2023/04/29 04:53:46;;;;;;;37.33;34.83;;;11.60;99.90;;;;;;4953020;29;20860;-79
2023/04/29 04:56:13;;;;;;;34.17;32.10;;;11.50;99.90;;;;;;4953769;28;20836;-78
2023/04/29 04:58:40;;;;;;;36.47;34.20;;;11.50;99.90;;;;;;4950721;29;20459;-77
2023/04/29 05:01:07;;;;;;;35.83;33.40;;;11.60;99.90;;;;;;4947487;29;20480;-77
2023/04/29 05:03:34;;;;;;;36.53;34.13;;;11.80;99.90;;;;;;4952680;29;20456;-77
2023/04/29 05:06:02;;;;;;;36.43;33.90;;;11.70;99.90;;;;;;4952677;28;20456;-77
2023/04/29 05:08:28;;;;;;;35.17;32.57;;;11.80;99.90;;;;;;4952294;29;20483;-77
2023/04/29 05:10:56;;;;;;;35.20;33.00;;;11.80;99.90;;;;;;4951953;29;20488;-83
2023/04/29 05:13:24;;;;;;;37.00;34.60;;;12.00;99.90;;;;;;4949713;29;20495;-83
2023/04/29 05:15:51;;;;;;;34.37;32.37;;;12.10;99.90;;;;;;4952555;29;20449;-76
2023/04/29 05:18:17;;;;;;;34.37;32.07;;;12.20;99.90;;;;;;4952457;29;20457;-75
2023/04/29 05:20:44;;;;;;;33.13;31.33;;;12.20;99.90;;;;;;4952099;29;20896;-76
2023/04/29 05:23:12;;;;;;;34.90;32.50;;;12.30;99.90;;;;;;4952029;29;20449;-76
2023/04/29 05:25:39;;;;;;;34.40;32.33;;;12.20;99.90;;;;;;4951991;29;20448;-75
2023/04/29 05:28:06;;;;;;;35.47;33.27;;;12.30;99.90;;;;;;4952106;29;20947;-76
2023/04/29 05:30:33;;;;;;;36.80;34.40;;;12.50;99.90;;;;;;4952447;29;20452;-76
2023/04/29 05:33:00;;;;;;;36.57;34.37;;;12.50;99.90;;;;;;4951848;29;20499;-76
2023/04/29 05:35:27;;;;;;;33.23;30.93;;;12.80;99.90;;;;;;4951753;28;20504;-75
2023/04/29 05:37:53;;;;;;;33.20;31.20;;;13.10;99.90;;;;;;4951698;29;20452;-76
2023/04/29 05:40:23;;;;;;;34.20;32.20;;;13.40;99.90;;;;;;4951670;29;20452;-76
2023/04/29 05:42:50;;;;;;;34.60;32.60;;;13.50;99.90;;;;;;4951911;28;20481;-75
2023/04/29 05:45:17;;;;;;;33.57;31.53;;;13.50;99.90;;;;;;4951982;28;20492;-75
2023/04/29 05:47:43;;;;;;;33.40;31.33;;;13.70;99.90;;;;;;4951647;29;20460;-75
2023/04/29 05:50:11;;;;;;;34.17;32.07;;;13.70;99.90;;;;;;4951368;29;20465;-75
2023/04/29 05:52:38;;;;;;;33.03;31.13;;;13.70;99.90;;;;;;4950627;29;20587;-75
2023/04/29 05:55:05;;;;;;;32.03;30.23;;;13.60;99.90;;;;;;4950381;29;20453;-75
2023/04/29 05:57:33;;;;;;;30.63;28.97;;;13.70;99.90;;;;;;4950678;29;20464;-75
2023/04/29 06:00:00;;;;;;;31.70;29.90;;;13.90;99.90;;;;;;4950450;29;20994;-75
2023/04/29 06:02:26;;;;;;;30.90;29.10;;;14.00;99.90;;;;;;4950233;29;20472;-75
2023/04/29 06:04:53;;;;;;;28.40;26.80;;;14.30;99.90;;;;;;4950046;29;20457;-74
2023/04/29 06:07:20;;;;;;;28.10;26.33;;;14.60;99.90;;;;;;4950359;29;20476;-74
2023/04/29 06:09:47;;;;;;;26.57;25.17;;;14.70;99.90;;;;;;4949683;29;20600;-74
2023/04/29 06:12:14;;;;;;;26.00;24.50;;;14.90;99.90;;;;;;4950028;29;20460;-74
2023/04/29 06:14:42;;;;;;;25.43;23.87;;;15.10;99.90;;;;;;4950344;29;20503;-74
2023/04/29 06:17:08;;;;;;;26.30;24.80;;;15.30;99.90;;;;;;4950339;29;20491;-74
2023/04/29 06:19:35;;;;;;;22.60;21.40;;;15.50;99.90;;;;;;4950728;29;20456;-74
2023/04/29 06:22:02;;;;;;;23.60;22.10;;;15.80;99.90;;;;;;4950790;29;20491;-74
2023/04/29 06:24:29;;;;;;;20.83;19.83;;;15.70;99.90;;;;;;4950479;29;20464;-74
2023/04/29 06:26:55;;;;;;;17.37;16.43;;;15.70;99.90;;;;;;4950546;29;20520;-74
2023/04/29 06:29:22;;;;;;;17.90;17.00;;;15.70;99.90;;;;;;4950249;29;20831;-74
2023/04/29 06:31:50;;;;;;;17.10;16.40;;;15.90;99.90;;;;;;4951014;29;20463;-74
2023/04/29 06:34:17;;;;;;;15.33;14.63;;;16.10;99.90;;;;;;4950699;29;21005;-74
2023/04/29 06:36:43;;;;;;;16.17;15.50;;;16.30;99.90;;;;;;4950479;29;20555;-73
2023/04/29 06:39:10;;;;;;;15.10;14.30;;;16.50;99.90;;;;;;4950493;29;20828;-74
2023/04/29 06:41:37;;;;;;;13.77;12.83;;;16.50;99.90;;;;;;4945061;28;20527;-76
2023/04/29 06:44:03;;;;;;;13.63;13.10;;;16.50;99.90;;;;;;4950717;28;20919;-75
2023/04/29 06:46:30;;;;;;;13.00;12.30;;;16.70;99.90;;;;;;4950447;28;20452;-75
2023/04/29 06:48:58;;;;;;;13.23;12.43;;;16.90;99.90;;;;;;4950412;28;20452;-75
2023/04/29 06:51:26;;;;;;;14.20;13.40;;;17.20;99.90;;;;;;4950440;28;20823;-76
2023/04/29 06:53:53;;;;;;;12.80;12.30;;;17.10;99.90;;;;;;4950337;28;20492;-76
2023/04/29 06:56:20;;;;;;;14.20;13.60;;;16.90;99.90;;;;;;4950494;28;20448;-74
2023/04/29 06:58:47;;;;;;;15.30;14.60;;;16.70;99.90;;;;;;4950392;28;20891;-75
2023/04/29 07:01:13;;;;;;;15.37;14.67;;;16.70;99.90;;;;;;4950378;28;20834;-74
2023/04/29 07:03:41;;;;;;;14.30;13.70;;;16.70;99.90;;;;;;4945557;28;20631;-72
2023/04/29 07:06:08;;;;;;;14.10;13.33;;;16.60;99.90;;;;;;4950199;28;20585;-74
2023/04/29 07:08:35;;;;;;;12.20;11.70;;;16.70;99.90;;;;;;4950268;28;20479;-74
2023/04/29 07:11:03;;;;;;;11.17;10.67;;;16.80;99.90;;;;;;4948321;28;21066;-74
2023/04/29 07:13:30;;;;;;;12.97;12.37;;;17.20;99.90;;;;;;4949230;28;20498;-74
2023/04/29 07:15:56;;;;;;;10.40;9.93;;;17.50;99.90;;;;;;4949983;28;20456;-73
2023/04/29 07:18:23;;;;;;;11.50;11.10;;;17.30;99.90;;;;;;4949731;28;20556;-73
2023/04/29 07:20:51;;;;;;;12.90;12.30;;;17.40;99.90;;;;;;4952214;28;20459;-73
2023/04/29 07:23:19;;;;;;;13.40;12.80;;;17.20;99.90;;;;;;4953520;28;20450;-73
2023/04/29 07:25:46;;;;;;;11.00;10.50;;;17.20;99.90;;;;;;4953480;28;20467;-73
2023/04/29 07:28:12;;;;;;;11.93;11.40;;;17.50;99.90;;;;;;4953399;28;20457;-73
2023/04/29 07:30:39;;;;;;;12.10;11.27;;;18.00;99.90;;;;;;4953202;28;20455;-74
2023/04/29 07:33:06;;;;;;;11.90;11.50;;;18.40;99.90;;;;;;4953267;28;20480;-73
2023/04/29 07:35:32;;;;;;;12.73;12.03;;;18.40;99.90;;;;;;4953457;28;20471;-73
2023/04/29 07:37:59;;;;;;;12.70;12.20;;;18.20;99.90;;;;;;4953168;28;20496;-76
2023/04/29 07:40:28;;;;;;;11.63;11.03;;;17.70;99.90;;;;;;4953055;28;20461;-73
2023/04/29 07:42:54;;;;;;;11.57;11.17;;;17.30;99.90;;;;;;4952869;28;20452;-73
2023/04/29 07:45:21;;;;;;;12.07;11.37;;;17.00;99.90;;;;;;4952764;28;20452;-72
2023/04/29 07:47:47;;;;;;;12.63;12.03;;;16.90;99.90;;;;;;4953277;28;20463;-72
2023/04/29 07:50:15;;;;;;;13.30;12.80;;;16.90;99.90;;;;;;4952721;28;20660;-73
2023/04/29 07:52:41;;;;;;;12.07;11.57;;;17.10;99.90;;;;;;4951233;28;20448;-73
2023/04/29 07:55:08;;;;;;;11.00;10.60;;;17.10;99.90;;;;;;4952968;28;20469;-73
2023/04/29 07:57:37;;;;;;;11.17;10.60;;;17.60;99.90;;;;;;4953063;28;20452;-72
2023/04/29 08:00:05;;;;;;;12.63;12.13;;;17.90;99.90;;;;;;4952895;28;20460;-73
2023/04/29 08:02:31;;;;;;;11.07;10.67;;;18.30;99.90;;;;;;4952835;28;20464;-72
2023/04/29 08:04:59;;;;;;;11.90;11.40;;;18.50;99.90;;;;;;4952742;28;20455;-72
2023/04/29 08:07:26;;;;;;;11.93;11.53;;;18.40;99.90;;;;;;4952309;28;20788;-72
2023/04/29 08:09:52;;;;;;;12.60;11.60;;;18.10;99.90;;;;;;4952298;28;20460;-73
2023/04/29 08:12:19;;;;;;;11.57;10.97;;;18.10;99.90;;;;;;4952773;28;20922;-73
2023/04/29 08:14:47;;;;;;;11.60;11.20;;;18.10;99.90;;;;;;4952684;28;20492;-72
2023/04/29 08:17:14;;;;;;;12.63;12.00;;;18.40;99.90;;;;;;4952152;28;20464;-73
2023/04/29 08:19:40;;;;;;;11.87;11.43;;;18.30;99.90;;;;;;4952053;28;20630;-73
2023/04/29 08:22:10;;;;;;;12.83;12.43;;;18.50;99.90;;;;;;4952170;28;20535;-73
2023/04/29 08:24:36;;;;;;;13.00;12.50;;;18.60;99.90;;;;;;4952187;28;20527;-73
2023/04/29 08:27:03;;;;;;;12.13;11.63;;;18.90;99.90;;;;;;4952311;28;20460;-73
2023/04/29 08:29:33;;;;;;;11.77;11.00;;;18.50;99.90;;;;;;4952341;28;20463;-73
2023/04/29 08:32:01;;;;;;;11.60;11.20;;;18.50;99.90;;;;;;4951571;28;20468;-74
2023/04/29 08:34:28;;;;;;;11.80;11.30;;;18.60;99.90;;;;;;4952173;28;20583;-74
2023/04/29 08:36:54;;;;;;;11.67;11.13;;;18.70;99.90;;;;;;4952429;28;20479;-73
2023/04/29 08:39:21;;;;;;;11.70;11.30;;;18.80;99.90;;;;;;4952376;28;20461;-73
2023/04/29 08:41:50;;;;;;;11.80;11.20;;;19.00;99.90;;;;;;4952646;28;20457;-73
2023/04/29 08:44:17;;;;;;;11.60;11.13;;;19.40;99.90;;;;;;4952459;28;20453;-73
2023/04/29 08:46:45;;;;;;;12.00;11.60;;;19.60;99.90;;;;;;4952462;28;20459;-73
2023/04/29 08:49:13;;;;;;;13.00;12.50;;;19.50;99.90;;;;;;4952638;28;20555;-72
2023/04/29 08:51:40;;;;;;;12.00;11.47;;;19.20;99.90;;;;;;4952423;28;20563;-73
2023/04/29 08:54:07;;;;;;;11.90;11.47;;;18.60;99.90;;;;;;4952199;28;20511;-74
2023/04/29 08:56:34;;;;;;;14.00;13.40;;;18.30;99.90;;;;;;4952078;28;20873;-73
2023/04/29 08:59:03;;;;;;;14.07;13.47;;;18.00;99.90;;;;;;4952343;28;20479;-72
2023/04/29 09:01:30;;;;;;;14.40;13.80;;;17.90;99.90;;;;;;4951865;28;20468;-73
2023/04/29 09:04:08;;;;;;;12.77;12.07;;;17.60;99.90;;;;;;4951717;28;20551;-72
2023/04/29 09:06:37;;;;;;;13.50;13.00;;;17.70;99.90;;;;;;4951843;28;20472;-73
2023/04/29 09:09:04;;;;;;;13.10;12.60;;;17.80;99.90;;;;;;4952126;28;20467;-72
2023/04/29 09:11:32;;;;;;;12.57;12.07;;;17.80;99.90;;;;;;4951504;28;20493;-72
2023/04/29 09:14:00;;;;;;;13.03;12.53;;;17.90;99.90;;;;;;4951745;28;20504;-73
2023/04/29 09:16:28;;;;;;;13.10;12.50;;;18.10;99.90;;;;;;4951639;28;20588;-73
2023/04/29 09:18:55;;;;;;;13.27;12.40;;;18.10;99.90;;;;;;4947844;28;20480;-72
2023/04/29 09:21:23;;;;;;;14.50;13.80;;;18.20;99.90;;;;;;4951602;28;20495;-72
2023/04/29 09:23:53;;;;;;;13.20;12.70;;;18.50;99.90;;;;;;4951588;28;20863;-73
2023/04/29 09:26:21;;;;;;;13.13;12.63;;;19.20;99.90;;;;;;4951655;28;20448;-73
2023/04/29 09:28:48;;;;;;;12.30;11.80;;;19.60;99.90;;;;;;4951717;28;20456;-73
2023/04/29 09:31:15;;;;;;;10.97;10.47;;;19.80;99.90;;;;;;4951657;28;20793;-73
2023/04/29 09:33:52;;;;;;;12.37;11.77;;;19.80;99.90;;;;;;4951268;28;20749;-74
2023/04/29 09:36:36;;;;;;;12.10;11.70;;;19.80;99.90;;;;;;4951506;28;20460;-73
2023/04/29 09:39:10;;;;;;;12.33;11.93;;;19.50;99.90;;;;;;4951621;28;20872;-73
2023/04/29 09:41:37;;;;;;;13.67;13.00;;;19.20;99.90;;;;;;4951439;28;20464;-73
2023/04/29 09:44:05;;;;;;;14.20;13.70;;;19.20;99.90;;;;;;4951424;28;20461;-73
2023/04/29 09:46:33;;;;;;;12.20;11.70;;;19.00;99.90;;;;;;4951355;28;20511;-73
2023/04/29 09:49:00;;;;;;;13.73;13.03;;;19.30;99.90;;;;;;4951228;28;20540;-73
2023/04/29 09:51:26;;;;;;;12.50;12.00;;;19.80;99.90;;;;;;4950928;28;20461;-72
2023/04/29 09:53:53;;;;;;;13.50;12.90;;;20.80;99.90;;;;;;4950989;28;20503;-74
2023/04/29 09:56:21;;;;;;;12.20;11.80;;;21.90;99.90;;;;;;4950936;28;20468;-73
2023/04/29 09:58:48;;;;;;;12.83;12.23;;;22.50;99.40;;;;;;4951056;28;20457;-73
2023/04/29 10:01:18;;;;;;;11.90;11.40;;;22.90;97.20;;;;;;4950998;28;20552;-72
2023/04/29 10:03:45;;;;;;;12.00;11.50;;;22.80;97.70;;;;;;4951148;28;20449;-73
2023/04/29 10:06:13;;;;;;;12.70;12.20;;;22.40;98.30;;;;;;4950860;28;20491;-73
2023/04/29 10:08:41;;;;;;;11.60;11.10;;;22.70;96.90;;;;;;4950730;28;20804;-73
2023/04/29 10:11:10;;;;;;;13.93;13.23;;;22.70;96.50;;;;;;4950221;28;20974;-72
2023/04/29 10:13:42;;;;;;;12.70;12.20;;;22.40;96.30;;;;;;4950546;28;20495;-71
2023/04/29 10:16:20;;;;;;;12.97;12.20;;;21.90;96.10;;;;;;4950478;28;20515;-73
2023/04/29 10:18:59;;;;;;;12.00;11.50;;;21.90;97.60;;;;;;4950448;28;20479;-74
2023/04/29 10:21:30;;;;;;;13.03;12.40;;;22.80;96.80;;;;;;4950704;28;20485;-73
2023/04/29 10:23:57;;;;;;;13.70;13.10;;;24.90;93.30;;;;;;4950469;28;20452;-74
2023/04/29 10:26:28;;;;;;;13.60;13.10;;;26.10;88.00;;;;;;4950714;28;20523;-74
2023/04/29 10:28:58;;;;;;;13.27;12.80;;;25.30;86.90;;;;;;4951088;28;20855;-74
2023/04/29 10:31:26;;;;;;;12.33;11.60;;;24.80;90.00;;;;;;4950613;28;20464;-74
2023/04/29 10:33:56;;;;;;;12.30;11.70;;;24.40;90.00;;;;;;4950156;28;21041;-73
2023/04/29 10:36:23;;;;;;;12.37;11.87;;;24.90;89.60;;;;;;4950467;28;20483;-73
2023/04/29 10:38:54;;;;;;;11.47;10.97;;;24.90;86.10;;;;;;4950423;28;20778;-73
2023/04/29 10:41:24;;;;;;;12.90;12.30;;;24.60;90.10;;;;;;4950451;28;20456;-73
2023/04/29 10:43:51;;;;;;;12.47;11.97;;;24.40;88.50;;;;;;4950699;28;20463;-72
2023/04/29 10:46:20;;;;;;;14.60;13.80;;;23.30;90.10;;;;;;4951021;28;20456;-73
2023/04/29 10:48:48;;;;;;;13.80;13.17;;;23.40;91.60;;;;;;4950748;28;20452;-73
2023/04/29 10:51:30;;;;;;;13.30;12.60;;;23.10;91.60;;;;;;4950553;28;20456;-73
2023/04/29 10:54:06;;;;;;;11.77;11.37;;;23.00;91.00;;;;;;4950531;28;21198;-73
2023/04/29 10:56:48;;;;;;;11.90;11.50;;;22.30;91.30;;;;;;4954266;28;20460;-73
2023/04/29 10:59:16;;;;;;;12.10;11.60;;;22.00;92.60;;;;;;4954272;28;20488;-74
2023/04/29 11:01:49;;;;;;;12.30;11.30;;;21.30;93.20;;;;;;4954113;28;20487;-74
2023/04/29 11:04:17;;;;;;;11.53;11.13;;;21.10;94.00;;;;;;4954210;28;20455;-87
2023/04/29 11:06:52;;;;;;;10.63;10.23;;;21.30;94.50;;;;;;4953591;28;20554;-76
2023/04/29 11:09:21;;;;;;;10.40;10.00;;;22.10;93.60;;;;;;4954370;28;20211;-76
2023/04/29 11:11:57;;;;;;;11.30;10.90;;;22.30;93.20;;;;;;4954279;28;20486;-76
2023/04/29 11:14:26;;;;;;;12.40;11.70;;;23.20;92.20;;;;;;4954151;28;20916;-74
2023/04/29 11:16:57;;;;;;;12.07;11.47;;;23.80;89.80;;;;;;4953739;28;20572;-74
2023/04/29 11:19:26;;;;;;;13.80;13.30;;;24.40;90.00;;;;;;4953002;28;20959;-74
2023/04/29 11:22:08;;;;;;;14.47;13.87;;;24.50;88.80;;;;;;4951311;28;20515;-73
2023/04/29 11:24:36;;;;;;;11.50;11.00;;;25.50;85.20;;;;;;4953292;28;20531;-74
2023/04/29 11:27:04;;;;;;;11.13;10.73;;;25.60;81.30;;;;;;4953262;28;20460;-74
2023/04/29 11:29:31;;;;;;;11.90;11.40;;;25.40;80.60;;;;;;4953213;28;20451;-74
2023/04/29 11:32:03;;;;;;;12.03;11.47;;;25.70;79.40;;;;;;4952818;28;20827;-74
2023/04/29 11:34:29;;;;;;;11.90;11.50;;;25.30;79.70;;;;;;4950469;28;20865;-74
2023/04/29 11:36:56;;;;;;;11.53;11.10;;;25.00;81.20;;;;;;4953123;28;20457;-74
2023/04/29 11:39:23;;;;;;;10.97;10.57;;;23.70;81.20;;;;;;4952846;28;20465;-73
2023/04/29 11:41:50;;;;;;;13.50;13.00;;;22.80;86.00;;;;;;4953363;28;20456;-73
2023/04/29 11:44:22;;;;;;;11.40;11.00;;;21.60;90.10;;;;;;4953121;28;20507;-73
2023/04/29 11:46:49;;;;;;;11.80;11.23;;;21.40;92.30;;;;;;4953339;28;20540;-73
2023/04/29 11:49:17;;;;;;;11.80;11.40;;;21.80;92.30;;;;;;4953032;28;20444;-73
2023/04/29 11:51:44;;;;;;;12.73;12.23;;;22.00;91.40;;;;;;4952694;28;20830;-73
2023/04/29 11:54:11;;;;;;;13.30;12.80;;;21.70;90.50;;;;;;4952416;28;20832;-73
2023/04/29 11:56:38;;;;;;;11.70;11.10;;;21.90;90.40;;;;;;4953909;28;20445;-73
2023/04/29 11:59:06;;;;;;;11.80;11.30;;;23.10;89.70;;;;;;4954492;28;20463;-73
2023/04/29 12:01:33;;;;;;;13.33;12.83;;;23.80;84.80;;;;;;4954196;28;20946;-73
2023/04/29 12:04:01;;;;;;;12.20;11.80;;;23.90;84.90;;;;;;4953991;28;20483;-73
2023/04/29 12:06:30;;;;;;;13.57;12.33;;;24.00;86.70;;;;;;4952626;28;20500;-73
2023/04/29 12:08:59;;;;;;;12.80;12.30;;;24.30;84.50;;;;;;4953716;28;20457;-74
2023/04/29 12:11:27;;;;;;;12.30;11.80;;;23.90;87.80;;;;;;4953330;28;20480;-73
2023/04/29 12:13:53;;;;;;;13.83;13.17;;;23.90;89.10;;;;;;4953520;28;20845;-73
2023/04/29 12:16:21;;;;;;;13.97;13.37;;;23.60;88.80;;;;;;4953859;28;20448;-74
2023/04/29 12:18:48;;;;;;;12.33;11.90;;;23.80;89.80;;;;;;4953797;28;20488;-74
2023/04/29 12:21:14;;;;;;;13.97;13.40;;;25.00;86.70;;;;;;4953588;28;20449;-73
2023/04/29 12:23:43;;;;;;;13.20;12.50;;;24.90;82.10;;;;;;4953661;28;20456;-73
2023/04/29 12:26:10;;;;;;;12.60;12.03;;;23.70;84.40;;;;;;4953493;28;20449;-72
2023/04/29 12:28:40;;;;;;;12.60;12.00;;;24.30;86.90;;;;;;4953588;28;20982;-74
2023/04/29 12:31:10;;;;;;;13.03;12.53;;;23.50;84.70;;;;;;4953764;28;20468;-74
2023/04/29 12:33:37;;;;;;;15.17;14.37;;;22.70;88.40;;;;;;4953105;28;20452;-73